sensor_id;sensor_type;location;lat;lon;timestamp;P1;durP1;ratioP1;P2;durP2;ratioP2
483;SDS011;228;48.922;12.198;2022-12-20T00:01:18;27.53;;;13.53;;
483;SDS011;228;48.922;12.198;2022-12-20T00:04:03;26.10;;;12.47;;
483;SDS011;228;48.922;12.198;2022-12-20T00:06:30;27.83;;;13.67;;
483;SDS011;228;48.922;12.198;2022-12-20T00:08:59;28.57;;;13.10;;
483;SDS011;228;48.922;12.198;2022-12-20T00:11:28;30.10;;;13.33;;
483;SDS011;228;48.922;12.198;2022-12-20T00:13:54;24.00;;;12.23;;
483;SDS011;228;48.922;12.198;2022-12-20T00:16:22;31.03;;;14.10;;
483;SDS011;228;48.922;12.198;2022-12-20T00:18:58;30.77;;;13.40;;
483;SDS011;228;48.922;12.198;2022-12-20T00:21:28;28.50;;;13.43;;
483;SDS011;228;48.922;12.198;2022-12-20T00:23:55;32.27;;;14.57;;
483;SDS011;228;48.922;12.198;2022-12-20T00:26:23;26.63;;;13.60;;
483;SDS011;228;48.922;12.198;2022-12-20T00:28:52;25.20;;;12.93;;
483;SDS011;228;48.922;12.198;2022-12-20T00:31:20;27.73;;;12.77;;
483;SDS011;228;48.922;12.198;2022-12-20T00:33:48;28.77;;;13.30;;
483;SDS011;228;48.922;12.198;2022-12-20T00:36:18;27.90;;;13.10;;
483;SDS011;228;48.922;12.198;2022-12-20T00:38:49;29.50;;;13.40;;
483;SDS011;228;48.922;12.198;2022-12-20T00:41:18;28.70;;;12.67;;
483;SDS011;228;48.922;12.198;2022-12-20T00:43:47;31.07;;;14.53;;
483;SDS011;228;48.922;12.198;2022-12-20T00:46:14;26.67;;;13.10;;
483;SDS011;228;48.922;12.198;2022-12-20T00:48:42;33.87;;;14.13;;
483;SDS011;228;48.922;12.198;2022-12-20T00:51:09;25.70;;;12.40;;
483;SDS011;228;48.922;12.198;2022-12-20T00:53:38;24.13;;;12.13;;
483;SDS011;228;48.922;12.198;2022-12-20T00:56:05;28.47;;;12.87;;
483;SDS011;228;48.922;12.198;2022-12-20T00:58:33;29.43;;;13.87;;
483;SDS011;228;48.922;12.198;2022-12-20T01:01:01;30.27;;;14.67;;
483;SDS011;228;48.922;12.198;2022-12-20T01:03:29;23.67;;;13.10;;
483;SDS011;228;48.922;12.198;2022-12-20T01:05:57;29.37;;;13.30;;
483;SDS011;228;48.922;12.198;2022-12-20T01:08:27;25.57;;;12.90;;
483;SDS011;228;48.922;12.198;2022-12-20T01:10:59;27.77;;;14.13;;
483;SDS011;228;48.922;12.198;2022-12-20T01:13:29;22.10;;;12.43;;
483;SDS011;228;48.922;12.198;2022-12-20T01:16:02;26.47;;;13.40;;
483;SDS011;228;48.922;12.198;2022-12-20T01:18:42;28.17;;;13.83;;
483;SDS011;228;48.922;12.198;2022-12-20T01:21:11;27.13;;;13.73;;
483;SDS011;228;48.922;12.198;2022-12-20T01:23:39;26.73;;;15.40;;
483;SDS011;228;48.922;12.198;2022-12-20T01:26:07;29.43;;;14.30;;
483;SDS011;228;48.922;12.198;2022-12-20T01:28:38;28.20;;;13.93;;
483;SDS011;228;48.922;12.198;2022-12-20T01:31:07;26.13;;;11.97;;
483;SDS011;228;48.922;12.198;2022-12-20T01:33:38;27.00;;;12.97;;
483;SDS011;228;48.922;12.198;2022-12-20T01:36:06;21.90;;;12.63;;
483;SDS011;228;48.922;12.198;2022-12-20T01:38:36;27.70;;;14.07;;
483;SDS011;228;48.922;12.198;2022-12-20T01:41:02;30.63;;;14.40;;
483;SDS011;228;48.922;12.198;2022-12-20T01:43:45;26.43;;;13.00;;
483;SDS011;228;48.922;12.198;2022-12-20T01:46:26;22.80;;;12.53;;
483;SDS011;228;48.922;12.198;2022-12-20T01:51:37;27.63;;;12.60;;
483;SDS011;228;48.922;12.198;2022-12-20T01:54:14;24.67;;;13.40;;
483;SDS011;228;48.922;12.198;2022-12-20T01:56:48;22.77;;;12.43;;
483;SDS011;228;48.922;12.198;2022-12-20T01:59:19;33.43;;;13.60;;
483;SDS011;228;48.922;12.198;2022-12-20T02:01:46;28.83;;;13.87;;
483;SDS011;228;48.922;12.198;2022-12-20T02:04:12;25.53;;;11.77;;
483;SDS011;228;48.922;12.198;2022-12-20T02:06:38;31.30;;;13.77;;
483;SDS011;228;48.922;12.198;2022-12-20T02:09:04;26.60;;;13.67;;
483;SDS011;228;48.922;12.198;2022-12-20T02:17:11;30.80;;;12.90;;
483;SDS011;228;48.922;12.198;2022-12-20T02:32:08;24.50;;;13.20;;
483;SDS011;228;48.922;12.198;2022-12-20T02:34:41;27.10;;;12.10;;
483;SDS011;228;48.922;12.198;2022-12-20T02:37:09;32.93;;;14.50;;
483;SDS011;228;48.922;12.198;2022-12-20T02:39:36;24.37;;;13.37;;
483;SDS011;228;48.922;12.198;2022-12-20T02:42:10;23.93;;;12.23;;
483;SDS011;228;48.922;12.198;2022-12-20T02:44:43;21.83;;;11.67;;
483;SDS011;228;48.922;12.198;2022-12-20T02:47:56;28.77;;;12.83;;
483;SDS011;228;48.922;12.198;2022-12-20T02:50:36;25.67;;;12.00;;
483;SDS011;228;48.922;12.198;2022-12-20T02:53:08;27.90;;;13.27;;
483;SDS011;228;48.922;12.198;2022-12-20T02:55:46;29.23;;;14.27;;
483;SDS011;228;48.922;12.198;2022-12-20T02:58:30;29.83;;;13.63;;
483;SDS011;228;48.922;12.198;2022-12-20T03:01:20;27.77;;;13.07;;
483;SDS011;228;48.922;12.198;2022-12-20T03:03:53;26.93;;;13.90;;
483;SDS011;228;48.922;12.198;2022-12-20T03:06:21;32.27;;;13.60;;
483;SDS011;228;48.922;12.198;2022-12-20T03:08:47;25.47;;;12.80;;
483;SDS011;228;48.922;12.198;2022-12-20T03:11:13;25.43;;;10.53;;
483;SDS011;228;48.922;12.198;2022-12-20T03:13:40;28.83;;;13.93;;
483;SDS011;228;48.922;12.198;2022-12-20T03:16:07;25.50;;;13.00;;
483;SDS011;228;48.922;12.198;2022-12-20T03:18:36;26.50;;;12.40;;
483;SDS011;228;48.922;12.198;2022-12-20T03:21:02;30.60;;;14.17;;
483;SDS011;228;48.922;12.198;2022-12-20T03:23:29;30.67;;;14.40;;
483;SDS011;228;48.922;12.198;2022-12-20T03:25:56;26.60;;;11.47;;
483;SDS011;228;48.922;12.198;2022-12-20T03:28:48;25.43;;;12.20;;
483;SDS011;228;48.922;12.198;2022-12-20T03:31:18;31.03;;;13.63;;
483;SDS011;228;48.922;12.198;2022-12-20T03:33:49;27.93;;;13.10;;
483;SDS011;228;48.922;12.198;2022-12-20T03:36:15;29.23;;;13.17;;
483;SDS011;228;48.922;12.198;2022-12-20T03:38:42;24.10;;;13.03;;
483;SDS011;228;48.922;12.198;2022-12-20T03:41:08;33.03;;;14.00;;
483;SDS011;228;48.922;12.198;2022-12-20T03:43:34;32.43;;;14.10;;
483;SDS011;228;48.922;12.198;2022-12-20T03:46:00;30.90;;;12.87;;
483;SDS011;228;48.922;12.198;2022-12-20T03:48:31;27.70;;;13.17;;
483;SDS011;228;48.922;12.198;2022-12-20T03:50:57;33.63;;;13.20;;
483;SDS011;228;48.922;12.198;2022-12-20T03:53:23;28.73;;;14.20;;
483;SDS011;228;48.922;12.198;2022-12-20T03:55:49;28.93;;;14.27;;
483;SDS011;228;48.922;12.198;2022-12-20T03:58:15;32.50;;;13.30;;
483;SDS011;228;48.922;12.198;2022-12-20T04:00:42;28.17;;;12.80;;
483;SDS011;228;48.922;12.198;2022-12-20T04:03:34;27.20;;;12.07;;
483;SDS011;228;48.922;12.198;2022-12-20T04:06:00;26.40;;;13.17;;
483;SDS011;228;48.922;12.198;2022-12-20T04:08:26;25.80;;;12.53;;
483;SDS011;228;48.922;12.198;2022-12-20T04:10:52;28.83;;;12.97;;
483;SDS011;228;48.922;12.198;2022-12-20T04:13:39;25.27;;;12.57;;
483;SDS011;228;48.922;12.198;2022-12-20T04:16:06;24.50;;;12.23;;
483;SDS011;228;48.922;12.198;2022-12-20T04:18:33;26.97;;;12.80;;
483;SDS011;228;48.922;12.198;2022-12-20T04:21:00;24.27;;;12.97;;
483;SDS011;228;48.922;12.198;2022-12-20T04:23:29;24.23;;;11.93;;
483;SDS011;228;48.922;12.198;2022-12-20T04:25:55;27.93;;;12.37;;
483;SDS011;228;48.922;12.198;2022-12-20T04:28:21;23.60;;;12.07;;
483;SDS011;228;48.922;12.198;2022-12-20T04:30:49;27.03;;;13.73;;
483;SDS011;228;48.922;12.198;2022-12-20T04:33:20;27.07;;;12.63;;
483;SDS011;228;48.922;12.198;2022-12-20T04:35:47;29.00;;;13.60;;
483;SDS011;228;48.922;12.198;2022-12-20T04:38:14;25.63;;;13.03;;
483;SDS011;228;48.922;12.198;2022-12-20T04:40:40;22.03;;;11.90;;
483;SDS011;228;48.922;12.198;2022-12-20T04:43:07;27.27;;;11.90;;
483;SDS011;228;48.922;12.198;2022-12-20T04:45:33;25.67;;;11.60;;
483;SDS011;228;48.922;12.198;2022-12-20T04:47:59;25.23;;;12.57;;
483;SDS011;228;48.922;12.198;2022-12-20T04:50:33;36.53;;;14.07;;
483;SDS011;228;48.922;12.198;2022-12-20T04:53:00;30.83;;;13.93;;
483;SDS011;228;48.922;12.198;2022-12-20T04:55:45;28.67;;;12.70;;
483;SDS011;228;48.922;12.198;2022-12-20T04:58:11;26.17;;;12.40;;
483;SDS011;228;48.922;12.198;2022-12-20T05:00:39;25.00;;;13.23;;
483;SDS011;228;48.922;12.198;2022-12-20T05:03:18;27.13;;;13.07;;
483;SDS011;228;48.922;12.198;2022-12-20T05:05:45;24.30;;;12.67;;
483;SDS011;228;48.922;12.198;2022-12-20T05:08:12;25.80;;;13.53;;
483;SDS011;228;48.922;12.198;2022-12-20T05:10:38;24.27;;;12.20;;
483;SDS011;228;48.922;12.198;2022-12-20T05:13:05;25.77;;;13.77;;
483;SDS011;228;48.922;12.198;2022-12-20T05:15:36;29.90;;;14.17;;
483;SDS011;228;48.922;12.198;2022-12-20T05:18:02;29.10;;;14.37;;
483;SDS011;228;48.922;12.198;2022-12-20T05:20:39;26.10;;;13.20;;
483;SDS011;228;48.922;12.198;2022-12-20T05:23:05;28.67;;;12.03;;
483;SDS011;228;48.922;12.198;2022-12-20T05:25:59;24.67;;;11.73;;
483;SDS011;228;48.922;12.198;2022-12-20T05:28:43;26.43;;;12.43;;
483;SDS011;228;48.922;12.198;2022-12-20T05:31:09;31.87;;;15.00;;
483;SDS011;228;48.922;12.198;2022-12-20T05:33:36;28.33;;;14.67;;
483;SDS011;228;48.922;12.198;2022-12-20T05:36:03;29.43;;;14.10;;
483;SDS011;228;48.922;12.198;2022-12-20T05:38:29;30.20;;;11.60;;
483;SDS011;228;48.922;12.198;2022-12-20T05:40:56;21.80;;;12.00;;
483;SDS011;228;48.922;12.198;2022-12-20T05:43:23;25.30;;;12.97;;
483;SDS011;228;48.922;12.198;2022-12-20T05:45:49;29.20;;;12.93;;
483;SDS011;228;48.922;12.198;2022-12-20T05:48:24;27.10;;;12.63;;
483;SDS011;228;48.922;12.198;2022-12-20T05:50:51;28.13;;;12.13;;
483;SDS011;228;48.922;12.198;2022-12-20T05:53:37;30.70;;;13.97;;
483;SDS011;228;48.922;12.198;2022-12-20T05:56:04;22.20;;;12.53;;
483;SDS011;228;48.922;12.198;2022-12-20T05:58:34;29.67;;;13.27;;
483;SDS011;228;48.922;12.198;2022-12-20T06:01:04;34.23;;;13.53;;
483;SDS011;228;48.922;12.198;2022-12-20T06:04:04;22.97;;;11.07;;
483;SDS011;228;48.922;12.198;2022-12-20T06:06:31;21.63;;;12.03;;
483;SDS011;228;48.922;12.198;2022-12-20T06:08:57;27.30;;;11.97;;
483;SDS011;228;48.922;12.198;2022-12-20T06:11:46;25.53;;;12.73;;
483;SDS011;228;48.922;12.198;2022-12-20T06:14:13;28.73;;;13.30;;
483;SDS011;228;48.922;12.198;2022-12-20T06:16:44;29.33;;;12.50;;
483;SDS011;228;48.922;12.198;2022-12-20T06:19:11;23.33;;;12.07;;
483;SDS011;228;48.922;12.198;2022-12-20T06:21:39;24.83;;;13.17;;
483;SDS011;228;48.922;12.198;2022-12-20T06:24:07;31.67;;;12.83;;
483;SDS011;228;48.922;12.198;2022-12-20T06:26:36;32.50;;;12.47;;
483;SDS011;228;48.922;12.198;2022-12-20T06:29:05;30.47;;;13.77;;
483;SDS011;228;48.922;12.198;2022-12-20T06:31:42;28.80;;;13.67;;
483;SDS011;228;48.922;12.198;2022-12-20T06:34:09;27.13;;;12.63;;
483;SDS011;228;48.922;12.198;2022-12-20T06:36:38;35.50;;;14.47;;
483;SDS011;228;48.922;12.198;2022-12-20T06:39:07;24.17;;;12.37;;
483;SDS011;228;48.922;12.198;2022-12-20T06:41:36;25.27;;;11.60;;
483;SDS011;228;48.922;12.198;2022-12-20T06:44:02;34.37;;;14.63;;
483;SDS011;228;48.922;12.198;2022-12-20T06:46:29;28.20;;;12.27;;
483;SDS011;228;48.922;12.198;2022-12-20T06:48:55;27.10;;;13.20;;
483;SDS011;228;48.922;12.198;2022-12-20T06:51:22;32.37;;;13.27;;
483;SDS011;228;48.922;12.198;2022-12-20T06:53:48;30.97;;;13.30;;
483;SDS011;228;48.922;12.198;2022-12-20T06:56:14;28.20;;;13.03;;
483;SDS011;228;48.922;12.198;2022-12-20T06:58:41;29.13;;;12.10;;
483;SDS011;228;48.922;12.198;2022-12-20T07:01:07;35.17;;;13.40;;
483;SDS011;228;48.922;12.198;2022-12-20T07:03:33;36.80;;;14.53;;
483;SDS011;228;48.922;12.198;2022-12-20T07:05:59;36.40;;;13.97;;
483;SDS011;228;48.922;12.198;2022-12-20T07:08:25;32.43;;;13.93;;
483;SDS011;228;48.922;12.198;2022-12-20T07:10:51;31.23;;;13.27;;
483;SDS011;228;48.922;12.198;2022-12-20T07:13:18;27.80;;;11.97;;
483;SDS011;228;48.922;12.198;2022-12-20T07:15:44;26.33;;;12.53;;
483;SDS011;228;48.922;12.198;2022-12-20T07:18:10;33.13;;;13.60;;
483;SDS011;228;48.922;12.198;2022-12-20T07:20:37;27.80;;;13.50;;
483;SDS011;228;48.922;12.198;2022-12-20T07:23:04;28.83;;;14.60;;
483;SDS011;228;48.922;12.198;2022-12-20T07:25:31;28.40;;;13.57;;
483;SDS011;228;48.922;12.198;2022-12-20T07:27:57;24.50;;;12.00;;
483;SDS011;228;48.922;12.198;2022-12-20T07:30:23;30.50;;;13.60;;
483;SDS011;228;48.922;12.198;2022-12-20T07:32:49;34.63;;;14.57;;
483;SDS011;228;48.922;12.198;2022-12-20T07:35:15;32.00;;;13.43;;
483;SDS011;228;48.922;12.198;2022-12-20T07:37:42;30.33;;;14.23;;
483;SDS011;228;48.922;12.198;2022-12-20T07:40:09;33.13;;;13.97;;
483;SDS011;228;48.922;12.198;2022-12-20T07:42:36;27.60;;;12.90;;
483;SDS011;228;48.922;12.198;2022-12-20T07:45:04;30.60;;;14.30;;
483;SDS011;228;48.922;12.198;2022-12-20T07:47:30;28.67;;;14.00;;
483;SDS011;228;48.922;12.198;2022-12-20T07:49:56;35.80;;;14.60;;
483;SDS011;228;48.922;12.198;2022-12-20T07:52:22;27.10;;;11.97;;
483;SDS011;228;48.922;12.198;2022-12-20T07:54:59;31.17;;;14.00;;
483;SDS011;228;48.922;12.198;2022-12-20T07:57:31;29.80;;;13.63;;
483;SDS011;228;48.922;12.198;2022-12-20T08:00:06;31.00;;;14.20;;
483;SDS011;228;48.922;12.198;2022-12-20T08:02:38;34.97;;;15.13;;
483;SDS011;228;48.922;12.198;2022-12-20T08:05:10;27.63;;;13.60;;
483;SDS011;228;48.922;12.198;2022-12-20T08:07:37;28.93;;;14.50;;
483;SDS011;228;48.922;12.198;2022-12-20T08:10:06;31.27;;;13.53;;
483;SDS011;228;48.922;12.198;2022-12-20T08:12:36;34.20;;;14.37;;
483;SDS011;228;48.922;12.198;2022-12-20T08:15:02;30.33;;;15.13;;
483;SDS011;228;48.922;12.198;2022-12-20T08:17:29;30.67;;;13.07;;
483;SDS011;228;48.922;12.198;2022-12-20T08:19:55;23.07;;;11.90;;
483;SDS011;228;48.922;12.198;2022-12-20T08:22:21;31.90;;;13.27;;
483;SDS011;228;48.922;12.198;2022-12-20T08:24:47;25.40;;;12.77;;
483;SDS011;228;48.922;12.198;2022-12-20T08:27:13;26.37;;;13.60;;
483;SDS011;228;48.922;12.198;2022-12-20T08:29:40;35.90;;;14.20;;
483;SDS011;228;48.922;12.198;2022-12-20T08:32:06;34.33;;;15.20;;
483;SDS011;228;48.922;12.198;2022-12-20T08:34:32;29.20;;;14.03;;
483;SDS011;228;48.922;12.198;2022-12-20T08:36:58;32.60;;;14.90;;
483;SDS011;228;48.922;12.198;2022-12-20T08:39:24;40.50;;;18.50;;
483;SDS011;228;48.922;12.198;2022-12-20T08:41:50;34.87;;;16.67;;
483;SDS011;228;48.922;12.198;2022-12-20T08:44:16;28.10;;;13.50;;
483;SDS011;228;48.922;12.198;2022-12-20T08:46:42;32.00;;;14.87;;
483;SDS011;228;48.922;12.198;2022-12-20T08:49:08;29.97;;;14.57;;
483;SDS011;228;48.922;12.198;2022-12-20T08:51:34;32.67;;;13.70;;
483;SDS011;228;48.922;12.198;2022-12-20T08:54:00;28.07;;;13.47;;
483;SDS011;228;48.922;12.198;2022-12-20T08:56:27;33.23;;;14.53;;
483;SDS011;228;48.922;12.198;2022-12-20T08:58:53;28.23;;;14.67;;
483;SDS011;228;48.922;12.198;2022-12-20T09:01:19;34.13;;;14.03;;
483;SDS011;228;48.922;12.198;2022-12-20T09:03:46;27.97;;;12.67;;
483;SDS011;228;48.922;12.198;2022-12-20T09:06:14;32.20;;;14.30;;
483;SDS011;228;48.922;12.198;2022-12-20T09:08:43;27.20;;;13.87;;
483;SDS011;228;48.922;12.198;2022-12-20T09:11:22;30.27;;;12.07;;
483;SDS011;228;48.922;12.198;2022-12-20T09:13:50;29.60;;;13.20;;
483;SDS011;228;48.922;12.198;2022-12-20T09:16:21;28.63;;;13.37;;
483;SDS011;228;48.922;12.198;2022-12-20T09:18:50;28.07;;;13.20;;
483;SDS011;228;48.922;12.198;2022-12-20T09:21:20;29.47;;;12.97;;
483;SDS011;228;48.922;12.198;2022-12-20T09:23:48;26.20;;;13.07;;
483;SDS011;228;48.922;12.198;2022-12-20T09:26:16;33.60;;;14.70;;
483;SDS011;228;48.922;12.198;2022-12-20T09:28:46;30.73;;;14.27;;
483;SDS011;228;48.922;12.198;2022-12-20T09:31:14;26.40;;;13.67;;
483;SDS011;228;48.922;12.198;2022-12-20T09:33:48;31.13;;;14.60;;
483;SDS011;228;48.922;12.198;2022-12-20T09:36:18;33.40;;;14.13;;
483;SDS011;228;48.922;12.198;2022-12-20T09:38:46;24.97;;;12.43;;
483;SDS011;228;48.922;12.198;2022-12-20T09:41:46;30.23;;;14.03;;
483;SDS011;228;48.922;12.198;2022-12-20T09:46:55;30.40;;;13.30;;
483;SDS011;228;48.922;12.198;2022-12-20T09:49:32;30.27;;;13.73;;
483;SDS011;228;48.922;12.198;2022-12-20T09:52:11;26.77;;;13.57;;
483;SDS011;228;48.922;12.198;2022-12-20T09:57:33;27.30;;;13.67;;
483;SDS011;228;48.922;12.198;2022-12-20T10:00:46;33.53;;;14.27;;
483;SDS011;228;48.922;12.198;2022-12-20T10:03:19;27.80;;;13.53;;
483;SDS011;228;48.922;12.198;2022-12-20T10:06:08;34.20;;;14.20;;
483;SDS011;228;48.922;12.198;2022-12-20T10:09:01;27.43;;;13.90;;
483;SDS011;228;48.922;12.198;2022-12-20T10:23:07;27.13;;;14.00;;
483;SDS011;228;48.922;12.198;2022-12-20T10:25:37;29.43;;;14.03;;
483;SDS011;228;48.922;12.198;2022-12-20T10:28:15;35.60;;;15.77;;
483;SDS011;228;48.922;12.198;2022-12-20T10:30:45;36.00;;;15.57;;
483;SDS011;228;48.922;12.198;2022-12-20T10:33:15;32.03;;;15.73;;
483;SDS011;228;48.922;12.198;2022-12-20T10:35:46;28.67;;;14.70;;
483;SDS011;228;48.922;12.198;2022-12-20T10:38:13;30.40;;;15.00;;
483;SDS011;228;48.922;12.198;2022-12-20T10:40:42;30.83;;;13.73;;
483;SDS011;228;48.922;12.198;2022-12-20T10:43:15;32.47;;;15.50;;
483;SDS011;228;48.922;12.198;2022-12-20T10:45:54;30.83;;;14.47;;
483;SDS011;228;48.922;12.198;2022-12-20T10:53:33;28.73;;;14.33;;
483;SDS011;228;48.922;12.198;2022-12-20T10:56:11;30.27;;;14.23;;
483;SDS011;228;48.922;12.198;2022-12-20T10:59:02;31.27;;;13.47;;
483;SDS011;228;48.922;12.198;2022-12-20T11:01:58;28.27;;;14.27;;
483;SDS011;228;48.922;12.198;2022-12-20T11:04:26;32.57;;;15.40;;
483;SDS011;228;48.922;12.198;2022-12-20T11:06:59;28.60;;;14.63;;
483;SDS011;228;48.922;12.198;2022-12-20T11:09:35;29.80;;;14.83;;
483;SDS011;228;48.922;12.198;2022-12-20T11:12:11;29.23;;;14.87;;
483;SDS011;228;48.922;12.198;2022-12-20T11:14:42;31.47;;;15.27;;
483;SDS011;228;48.922;12.198;2022-12-20T11:31:50;29.30;;;14.30;;
483;SDS011;228;48.922;12.198;2022-12-20T11:37:45;29.67;;;14.73;;
483;SDS011;228;48.922;12.198;2022-12-20T11:40:41;26.73;;;13.00;;
483;SDS011;228;48.922;12.198;2022-12-20T11:46:49;31.23;;;14.23;;
483;SDS011;228;48.922;12.198;2022-12-20T11:50:12;30.37;;;13.77;;
483;SDS011;228;48.922;12.198;2022-12-20T11:52:50;31.27;;;14.93;;
483;SDS011;228;48.922;12.198;2022-12-20T11:55:51;29.07;;;13.67;;
483;SDS011;228;48.922;12.198;2022-12-20T11:58:26;30.57;;;14.57;;
483;SDS011;228;48.922;12.198;2022-12-20T12:01:00;30.17;;;14.53;;
483;SDS011;228;48.922;12.198;2022-12-20T12:03:34;30.93;;;14.87;;
483;SDS011;228;48.922;12.198;2022-12-20T12:08:44;31.57;;;14.33;;
483;SDS011;228;48.922;12.198;2022-12-20T12:11:25;30.83;;;14.23;;
483;SDS011;228;48.922;12.198;2022-12-20T12:13:56;27.70;;;14.57;;
483;SDS011;228;48.922;12.198;2022-12-20T12:16:27;31.57;;;14.30;;
483;SDS011;228;48.922;12.198;2022-12-20T12:19:07;29.27;;;13.67;;
483;SDS011;228;48.922;12.198;2022-12-20T12:21:36;31.70;;;14.27;;
483;SDS011;228;48.922;12.198;2022-12-20T12:24:17;30.33;;;14.57;;
483;SDS011;228;48.922;12.198;2022-12-20T12:26:58;32.97;;;14.47;;
483;SDS011;228;48.922;12.198;2022-12-20T12:29:25;29.07;;;13.57;;
483;SDS011;228;48.922;12.198;2022-12-20T12:32:05;31.23;;;14.50;;
483;SDS011;228;48.922;12.198;2022-12-20T12:37:38;31.83;;;15.07;;
483;SDS011;228;48.922;12.198;2022-12-20T12:43:32;31.90;;;14.80;;
483;SDS011;228;48.922;12.198;2022-12-20T12:46:14;32.23;;;16.03;;
483;SDS011;228;48.922;12.198;2022-12-20T12:48:59;31.60;;;16.37;;
483;SDS011;228;48.922;12.198;2022-12-20T12:51:32;35.73;;;16.90;;
483;SDS011;228;48.922;12.198;2022-12-20T12:54:02;31.10;;;15.30;;
483;SDS011;228;48.922;12.198;2022-12-20T12:56:44;33.50;;;14.03;;
483;SDS011;228;48.922;12.198;2022-12-20T12:59:20;31.17;;;14.67;;
483;SDS011;228;48.922;12.198;2022-12-20T13:33:44;31.80;;;14.90;;
483;SDS011;228;48.922;12.198;2022-12-20T13:39:47;33.07;;;15.43;;
483;SDS011;228;48.922;12.198;2022-12-20T13:41:50;32.97;;;16.70;;
483;SDS011;228;48.922;12.198;2022-12-20T13:44:40;31.10;;;13.60;;
483;SDS011;228;48.922;12.198;2022-12-20T13:50:21;37.03;;;15.67;;
483;SDS011;228;48.922;12.198;2022-12-20T13:52:56;32.83;;;15.80;;
483;SDS011;228;48.922;12.198;2022-12-20T13:58:04;31.70;;;15.57;;
483;SDS011;228;48.922;12.198;2022-12-20T14:00:37;35.43;;;15.20;;
483;SDS011;228;48.922;12.198;2022-12-20T14:03:03;43.40;;;16.67;;
483;SDS011;228;48.922;12.198;2022-12-20T14:05:37;34.03;;;15.93;;
483;SDS011;228;48.922;12.198;2022-12-20T14:08:07;39.20;;;17.40;;
483;SDS011;228;48.922;12.198;2022-12-20T14:10:39;39.57;;;16.23;;
483;SDS011;228;48.922;12.198;2022-12-20T14:13:22;37.27;;;16.53;;
483;SDS011;228;48.922;12.198;2022-12-20T14:15:52;36.07;;;15.13;;
483;SDS011;228;48.922;12.198;2022-12-20T14:18:24;36.53;;;15.50;;
483;SDS011;228;48.922;12.198;2022-12-20T14:23:23;36.73;;;16.83;;
483;SDS011;228;48.922;12.198;2022-12-20T14:25:58;41.40;;;16.50;;
483;SDS011;228;48.922;12.198;2022-12-20T14:28:30;39.03;;;18.23;;
483;SDS011;228;48.922;12.198;2022-12-20T14:31:05;43.57;;;16.30;;
483;SDS011;228;48.922;12.198;2022-12-20T14:34:02;34.90;;;15.80;;
483;SDS011;228;48.922;12.198;2022-12-20T14:36:42;33.20;;;15.10;;
483;SDS011;228;48.922;12.198;2022-12-20T14:39:21;35.93;;;15.90;;
483;SDS011;228;48.922;12.198;2022-12-20T14:44:38;37.97;;;15.27;;
483;SDS011;228;48.922;12.198;2022-12-20T14:50:00;33.47;;;14.97;;
483;SDS011;228;48.922;12.198;2022-12-20T14:52:34;31.27;;;15.23;;
483;SDS011;228;48.922;12.198;2022-12-20T14:55:06;27.80;;;13.60;;
483;SDS011;228;48.922;12.198;2022-12-20T14:57:44;31.20;;;14.50;;
483;SDS011;228;48.922;12.198;2022-12-20T15:02:50;27.33;;;14.00;;
483;SDS011;228;48.922;12.198;2022-12-20T15:08:11;33.43;;;14.70;;
483;SDS011;228;48.922;12.198;2022-12-20T15:10:43;34.33;;;15.03;;
483;SDS011;228;48.922;12.198;2022-12-20T15:13:38;32.73;;;14.60;;
483;SDS011;228;48.922;12.198;2022-12-20T15:16:18;33.33;;;13.53;;
483;SDS011;228;48.922;12.198;2022-12-20T15:18:54;32.77;;;13.77;;
483;SDS011;228;48.922;12.198;2022-12-20T15:23:56;33.50;;;14.63;;
483;SDS011;228;48.922;12.198;2022-12-20T15:26:26;39.53;;;14.27;;
483;SDS011;228;48.922;12.198;2022-12-20T15:28:55;35.33;;;15.20;;
483;SDS011;228;48.922;12.198;2022-12-20T15:31:22;36.03;;;15.83;;
483;SDS011;228;48.922;12.198;2022-12-20T15:33:50;34.37;;;16.30;;
483;SDS011;228;48.922;12.198;2022-12-20T15:36:23;32.93;;;14.63;;
483;SDS011;228;48.922;12.198;2022-12-20T15:38:51;31.13;;;13.17;;
483;SDS011;228;48.922;12.198;2022-12-20T15:41:26;35.00;;;14.97;;
483;SDS011;228;48.922;12.198;2022-12-20T15:43:54;28.70;;;14.53;;
483;SDS011;228;48.922;12.198;2022-12-20T15:46:32;35.17;;;15.87;;
483;SDS011;228;48.922;12.198;2022-12-20T15:48:58;33.67;;;14.80;;
483;SDS011;228;48.922;12.198;2022-12-20T15:51:29;34.40;;;16.20;;
483;SDS011;228;48.922;12.198;2022-12-20T15:53:59;38.00;;;16.07;;
483;SDS011;228;48.922;12.198;2022-12-20T15:56:28;35.77;;;14.83;;
483;SDS011;228;48.922;12.198;2022-12-20T15:58:54;30.00;;;14.20;;
483;SDS011;228;48.922;12.198;2022-12-20T16:01:22;37.50;;;16.47;;
483;SDS011;228;48.922;12.198;2022-12-20T16:03:53;36.23;;;16.13;;
483;SDS011;228;48.922;12.198;2022-12-20T16:06:19;41.67;;;18.03;;
483;SDS011;228;48.922;12.198;2022-12-20T16:08:45;40.43;;;16.93;;
483;SDS011;228;48.922;12.198;2022-12-20T16:11:21;29.37;;;14.87;;
483;SDS011;228;48.922;12.198;2022-12-20T16:13:53;34.93;;;15.50;;
483;SDS011;228;48.922;12.198;2022-12-20T16:16:25;30.73;;;14.67;;
483;SDS011;228;48.922;12.198;2022-12-20T16:18:55;31.70;;;15.43;;
483;SDS011;228;48.922;12.198;2022-12-20T16:21:26;35.93;;;15.93;;
483;SDS011;228;48.922;12.198;2022-12-20T16:23:57;36.20;;;16.37;;
483;SDS011;228;48.922;12.198;2022-12-20T16:26:23;37.33;;;16.67;;
483;SDS011;228;48.922;12.198;2022-12-20T16:28:51;36.97;;;15.80;;
483;SDS011;228;48.922;12.198;2022-12-20T16:31:31;29.03;;;14.43;;
483;SDS011;228;48.922;12.198;2022-12-20T16:34:09;37.63;;;16.60;;
483;SDS011;228;48.922;12.198;2022-12-20T16:36:38;30.73;;;14.90;;
483;SDS011;228;48.922;12.198;2022-12-20T16:39:05;34.43;;;16.03;;
483;SDS011;228;48.922;12.198;2022-12-20T16:41:31;33.10;;;15.97;;
483;SDS011;228;48.922;12.198;2022-12-20T16:43:59;32.80;;;15.87;;
483;SDS011;228;48.922;12.198;2022-12-20T16:46:27;35.40;;;15.80;;
483;SDS011;228;48.922;12.198;2022-12-20T16:48:55;32.90;;;14.43;;
483;SDS011;228;48.922;12.198;2022-12-20T16:53:53;29.70;;;15.03;;
483;SDS011;228;48.922;12.198;2022-12-20T16:56:21;34.10;;;15.63;;
483;SDS011;228;48.922;12.198;2022-12-20T16:58:48;32.73;;;15.53;;
483;SDS011;228;48.922;12.198;2022-12-20T17:01:21;30.23;;;14.03;;
483;SDS011;228;48.922;12.198;2022-12-20T17:03:51;28.17;;;14.37;;
483;SDS011;228;48.922;12.198;2022-12-20T17:06:17;31.90;;;14.63;;
483;SDS011;228;48.922;12.198;2022-12-20T17:08:43;28.13;;;15.17;;
483;SDS011;228;48.922;12.198;2022-12-20T17:11:15;30.63;;;14.73;;
483;SDS011;228;48.922;12.198;2022-12-20T17:13:51;32.63;;;14.53;;
483;SDS011;228;48.922;12.198;2022-12-20T17:16:20;35.90;;;16.70;;
483;SDS011;228;48.922;12.198;2022-12-20T17:18:48;27.47;;;15.73;;
483;SDS011;228;48.922;12.198;2022-12-20T17:23:57;31.57;;;15.73;;
483;SDS011;228;48.922;12.198;2022-12-20T17:26:24;33.67;;;15.80;;
483;SDS011;228;48.922;12.198;2022-12-20T17:28:54;33.53;;;14.90;;
483;SDS011;228;48.922;12.198;2022-12-20T17:31:24;31.80;;;14.03;;
483;SDS011;228;48.922;12.198;2022-12-20T17:33:55;34.77;;;15.67;;
483;SDS011;228;48.922;12.198;2022-12-20T17:36:26;32.17;;;14.77;;
483;SDS011;228;48.922;12.198;2022-12-20T17:38:53;36.20;;;15.77;;
483;SDS011;228;48.922;12.198;2022-12-20T17:41:27;29.93;;;14.87;;